createdAt,value
2018-06-29T00:00:01.215Z,66.20
2018-06-29T00:02:30.297Z,66.46
2018-06-29T00:04:58.802Z,66.42
2018-06-29T00:07:27.331Z,65.95
2018-06-29T00:09:56.257Z,65.92
2018-06-29T00:12:24.686Z,65.64
2018-06-29T00:14:53.341Z,65.45
2018-06-29T00:17:22.822Z,65.82
2018-06-29T00:19:51.230Z,66.19
2018-06-29T00:22:19.742Z,65.89
2018-06-29T00:24:49.093Z,65.47
2018-06-29T00:27:17.521Z,65.13
2018-06-29T00:29:46.157Z,64.45
2018-06-29T00:32:14.750Z,63.96
2018-06-29T00:34:43.281Z,63.67
2018-06-29T00:37:12.320Z,62.79
2018-06-29T00:39:41.013Z,62.78
2018-06-29T00:42:09.425Z,62.25
2018-06-29T00:44:37.922Z,62.14
2018-06-29T00:47:06.530Z,61.68
2018-06-29T00:49:35.037Z,61.79
2018-06-29T00:52:04.457Z,61.39
2018-06-29T00:54:33.947Z,61.10
2018-06-29T00:57:02.374Z,60.98
2018-06-29T00:59:30.846Z,60.85
2018-06-29T01:01:59.490Z,61.22
2018-06-29T01:04:28.001Z,60.72
2018-06-29T01:06:57.237Z,60.19
2018-06-29T01:09:25.848Z,59.98
2018-06-29T01:11:54.281Z,60.12
2018-06-29T01:14:22.751Z,59.64
2018-06-29T01:16:51.873Z,59.48
2018-06-29T01:19:20.393Z,59.39
2018-06-29T01:21:48.879Z,59.13
2018-06-29T01:24:17.421Z,59.70
2018-06-29T01:26:46.227Z,59.65
2018-06-29T01:29:14.712Z,59.54
2018-06-29T01:31:43.374Z,59.55
2018-06-29T01:34:12.337Z,59.74
2018-06-29T01:36:40.794Z,59.35
2018-06-29T01:39:10.223Z,59.24
2018-06-29T01:41:39.238Z,59.61
2018-06-29T01:44:07.740Z,59.40
2018-06-29T01:46:36.277Z,59.65
2018-06-29T01:49:05.110Z,59.76
2018-06-29T01:51:33.681Z,59.33
2018-06-29T01:54:02.207Z,59.31
2018-06-29T01:56:30.699Z,58.91
2018-06-29T01:59:00.158Z,59.07
2018-06-29T02:01:29.041Z,58.63
2018-06-29T02:03:58.529Z,58.86
2018-06-29T02:06:27.054Z,58.66
2018-06-29T02:08:55.673Z,58.01
2018-06-29T02:11:24.137Z,58.49
2018-06-29T02:13:52.865Z,58.18
2018-06-29T02:16:21.606Z,57.88
2018-06-29T02:18:50.341Z,58.08
2018-06-29T02:21:18.996Z,57.80
2018-06-29T02:23:48.529Z,58.03
2018-06-29T02:26:16.949Z,57.98
2018-06-29T02:28:46.041Z,58.17
2018-06-29T02:31:14.781Z,58.08
2018-06-29T02:33:43.197Z,57.82
2018-06-29T02:36:12.009Z,58.08
2018-06-29T02:38:40.743Z,58.20
2018-06-29T02:41:09.491Z,58.26
2018-06-29T02:43:39.717Z,57.76
2018-06-29T02:46:08.215Z,58.04
2018-06-29T02:48:36.709Z,58.12
2018-06-29T02:51:05.385Z,58.29
2018-06-29T02:53:33.878Z,57.97
2018-06-29T02:56:02.325Z,57.59
2018-06-29T02:58:30.842Z,57.05
2018-06-29T03:00:59.873Z,57.66
2018-06-29T03:03:29.184Z,57.26
2018-06-29T03:05:58.106Z,57.51
2018-06-29T03:08:27.021Z,57.66
2018-06-29T03:10:55.461Z,57.40
2018-06-29T03:13:23.904Z,57.41
2018-06-29T03:15:52.333Z,57.30
2018-06-29T03:18:20.770Z,57.29
2018-06-29T03:20:49.469Z,57.44
2018-06-29T03:23:17.885Z,57.11
2018-06-29T03:25:46.527Z,56.84
2018-06-29T03:28:15.189Z,57.05
2018-06-29T03:30:43.682Z,56.73
2018-06-29T03:33:12.126Z,56.76
2018-06-29T03:35:40.769Z,57.13
2018-06-29T03:38:10.093Z,56.89
2018-06-29T03:40:39.156Z,56.89
2018-06-29T03:43:07.626Z,56.81
2018-06-29T03:45:37.840Z,56.99
2018-06-29T03:48:06.281Z,56.31
2018-06-29T03:50:35.029Z,56.32
2018-06-29T03:53:03.873Z,56.49
2018-06-29T03:55:32.317Z,56.51
2018-06-29T03:58:01.102Z,56.40
2018-06-29T04:00:29.650Z,56.40
2018-06-29T04:02:58.132Z,55.97
2018-06-29T04:05:26.765Z,56.50
2018-06-29T04:07:55.370Z,55.95
2018-06-29T04:10:23.854Z,56.42
2018-06-29T04:12:52.579Z,56.41
2018-06-29T04:15:21.238Z,56.26
2018-06-29T04:17:49.714Z,56.47
2018-06-29T04:20:18.340Z,56.17
2018-06-29T04:22:47.517Z,56.18
2018-06-29T04:25:16.006Z,56.65
2018-06-29T04:27:45.113Z,56.48
2018-06-29T04:30:14.561Z,56.18
2018-06-29T04:32:43.609Z,55.42
2018-06-29T04:35:12.598Z,55.53
2018-06-29T04:37:41.462Z,55.41
2018-06-29T04:40:10.106Z,55.23
2018-06-29T04:42:38.761Z,55.40
2018-06-29T04:45:07.518Z,55.52
2018-06-29T04:47:36.645Z,55.26
2018-06-29T04:50:05.241Z,54.57
2018-06-29T04:52:33.787Z,54.17
2018-06-29T04:55:04.198Z,54.32
2018-06-29T04:57:32.902Z,53.82
2018-06-29T05:00:01.422Z,53.93
2018-06-29T05:02:30.590Z,53.93
2018-06-29T05:04:59.351Z,53.79
2018-06-29T05:07:27.969Z,53.57
2018-06-29T05:09:56.529Z,53.42
2018-06-29T05:12:25.133Z,53.21
2018-06-29T05:14:53.645Z,53.40
2018-06-29T05:17:22.069Z,53.58
2018-06-29T05:19:50.829Z,52.97
2018-06-29T05:22:19.365Z,52.53
2018-06-29T05:24:48.219Z,52.97
2018-06-29T05:27:17.269Z,52.53
2018-06-29T05:29:46.000Z,52.65
2018-06-29T05:32:14.437Z,52.43
2018-06-29T05:34:43.401Z,51.98
2018-06-29T05:37:12.159Z,52.58
2018-06-29T05:39:40.641Z,52.12
2018-06-29T05:42:09.307Z,52.14
2018-06-29T05:44:38.086Z,51.96
2018-06-29T05:47:06.570Z,51.79
2018-06-29T05:49:35.340Z,51.65
2018-06-29T05:52:03.952Z,51.53
2018-06-29T05:54:32.373Z,51.28
2018-06-29T05:57:01.077Z,51.72
2018-06-29T05:59:29.949Z,51.89
2018-06-29T06:01:58.423Z,51.89
2018-06-29T06:04:26.991Z,51.45
2018-06-29T06:06:55.730Z,51.77
2018-06-29T06:09:24.193Z,51.64
2018-06-29T06:11:53.211Z,51.65
2018-06-29T06:14:21.798Z,51.77
2018-06-29T06:16:50.493Z,51.80
2018-06-29T06:19:30.298Z,51.74
2018-06-29T06:21:59.592Z,51.91
2018-06-29T06:24:27.973Z,51.06
2018-06-29T06:26:57.169Z,51.20
2018-06-29T06:29:25.597Z,51.37
2018-06-29T06:31:54.022Z,51.27
2018-06-29T06:34:22.553Z,51.60
2018-06-29T06:36:50.985Z,51.62
2018-06-29T06:39:19.417Z,51.21
2018-06-29T06:41:48.236Z,51.40
2018-06-29T06:44:16.731Z,51.32
2018-06-29T06:46:45.182Z,51.48
2018-06-29T06:49:14.133Z,51.59
2018-06-29T06:51:42.561Z,51.04
2018-06-29T06:54:10.990Z,50.99
2018-06-29T06:56:39.798Z,51.15
2018-06-29T06:59:08.221Z,50.92
2018-06-29T07:01:36.677Z,50.94
2018-06-29T07:04:05.865Z,51.28
2018-06-29T07:06:34.286Z,51.22
2018-06-29T07:09:02.725Z,50.45
2018-06-29T07:11:31.623Z,50.76
2018-06-29T07:14:00.217Z,50.42
2018-06-29T07:16:28.720Z,50.71
2018-06-29T07:18:57.693Z,50.55
2018-06-29T07:21:26.351Z,50.47
2018-06-29T07:23:54.912Z,49.99
2018-06-29T07:26:23.470Z,49.54
2018-06-29T07:28:52.134Z,49.21
2018-06-29T07:31:20.625Z,49.32
2018-06-29T07:33:49.301Z,48.28
2018-06-29T07:36:18.413Z,48.20
2018-06-29T07:38:46.841Z,48.50
2018-06-29T07:41:15.609Z,48.21
2018-06-29T07:43:44.569Z,48.56
2018-06-29T07:46:13.014Z,48.48
2018-06-29T07:48:41.919Z,47.94
2018-06-29T07:51:10.486Z,48.05
2018-06-29T07:53:38.909Z,48.27
2018-06-29T07:56:07.660Z,47.99
2018-06-29T07:58:36.226Z,47.31
2018-06-29T08:01:06.248Z,47.52
2018-06-29T08:03:35.757Z,47.32
2018-06-29T08:06:05.073Z,47.48
2018-06-29T08:08:33.508Z,46.67
2018-06-29T08:11:02.058Z,47.01
2018-06-29T08:13:31.215Z,46.88
2018-06-29T08:15:59.869Z,45.90
2018-06-29T08:18:28.687Z,46.57
2018-06-29T08:20:57.739Z,46.45
2018-06-29T08:23:33.613Z,46.67
2018-06-29T08:26:14.368Z,46.62
2018-06-29T08:28:43.319Z,47.02
2018-06-29T08:31:13.021Z,46.04
2018-06-29T08:33:41.469Z,46.17
2018-06-29T08:36:10.291Z,46.29
2018-06-29T08:38:39.175Z,45.84
2018-06-29T08:41:07.952Z,46.47
2018-06-29T08:43:36.593Z,46.74
2018-06-29T08:46:05.457Z,46.59
2018-06-29T08:48:33.965Z,46.24
2018-06-29T08:51:02.678Z,46.33
2018-06-29T08:53:32.494Z,46.86
2018-06-29T08:56:01.883Z,46.87
2018-06-29T08:58:31.226Z,46.79
2018-06-29T09:01:00.509Z,46.60
2018-06-29T09:03:28.961Z,47.03
2018-06-29T09:05:57.475Z,46.09
2018-06-29T09:08:26.358Z,46.20
2018-06-29T09:10:54.821Z,45.75
2018-06-29T09:13:23.342Z,45.81
2018-06-29T09:15:52.136Z,45.84
2018-06-29T09:18:20.693Z,45.88
2018-06-29T09:20:49.493Z,44.84
2018-06-29T09:23:18.158Z,45.25
2018-06-29T09:25:46.622Z,46.23
2018-06-29T09:28:15.206Z,46.28
2018-06-29T09:30:43.910Z,44.67
2018-06-29T09:33:12.706Z,44.02
2018-06-29T09:35:42.107Z,42.01
2018-06-29T09:38:10.882Z,41.51
2018-06-29T09:40:39.312Z,41.10
2018-06-29T09:43:08.269Z,41.28
2018-06-29T09:45:36.962Z,41.68
2018-06-29T09:48:05.679Z,41.89
2018-06-29T09:50:34.396Z,41.90
2018-06-29T09:53:02.985Z,42.62
2018-06-29T09:55:31.554Z,43.05
2018-06-29T09:58:00.249Z,42.66
2018-06-29T10:00:30.617Z,41.86
2018-06-29T10:02:59.631Z,41.44
2018-06-29T10:05:28.590Z,41.15
2018-06-29T10:07:57.516Z,41.47
2018-06-29T10:10:25.985Z,42.37
2018-06-29T10:12:54.492Z,42.49
2018-06-29T10:15:23.461Z,41.78
2018-06-29T10:17:51.900Z,41.70
2018-06-29T10:20:20.506Z,40.38
2018-06-29T10:22:49.088Z,39.91
2018-06-29T10:25:17.732Z,40.72
2018-06-29T10:27:46.362Z,40.51
2018-06-29T10:30:15.238Z,39.06
2018-06-29T10:32:44.125Z,36.88
2018-06-29T10:35:13.338Z,37.63
2018-06-29T10:37:41.989Z,36.32
2018-06-29T10:40:11.991Z,36.06
2018-06-29T10:42:42.075Z,34.92
2018-06-29T10:45:12.093Z,34.97
2018-06-29T10:47:40.534Z,34.76
2018-06-29T10:50:09.541Z,34.61
2018-06-29T10:52:38.005Z,34.64
2018-06-29T10:55:06.599Z,34.21
2018-06-29T10:57:35.060Z,33.62
2018-06-29T11:00:03.660Z,32.06
2018-06-29T11:02:32.232Z,31.92
2018-06-29T11:05:01.918Z,30.62
2018-06-29T11:07:30.404Z,29.99
2018-06-29T11:09:59.040Z,30.41
2018-06-29T11:12:27.589Z,31.46
2018-06-29T11:14:59.641Z,30.81
2018-06-29T11:17:29.006Z,32.40
2018-06-29T11:19:57.433Z,31.37
2018-06-29T11:22:26.163Z,30.90
2018-06-29T11:24:55.214Z,31.23
2018-06-29T11:27:23.727Z,31.62
2018-06-29T11:29:52.152Z,30.22
2018-06-29T11:32:21.297Z,30.07
2018-06-29T11:34:49.848Z,29.93
2018-06-29T11:37:18.506Z,31.34
2018-06-29T11:39:47.445Z,31.58
2018-06-29T11:42:15.873Z,32.63
2018-06-29T11:44:44.310Z,33.12
2018-06-29T11:47:13.198Z,32.32
2018-06-29T11:49:41.979Z,32.47
2018-06-29T11:52:10.457Z,31.50
2018-06-29T11:54:39.242Z,31.53
2018-06-29T11:57:07.687Z,32.72
2018-06-29T11:59:36.137Z,33.27
2018-06-29T12:02:05.329Z,33.47
2018-06-29T12:04:34.017Z,33.57
2018-06-29T12:07:02.475Z,33.37
2018-06-29T12:09:31.166Z,32.14
2018-06-29T12:11:59.593Z,32.51
2018-06-29T12:14:28.047Z,33.36
2018-06-29T12:16:56.682Z,32.88
2018-06-29T12:19:25.166Z,32.75
2018-06-29T12:21:53.593Z,32.56
2018-06-29T12:24:22.469Z,32.47
2018-06-29T12:26:50.901Z,30.67
2018-06-29T12:29:19.349Z,30.11
2018-06-29T12:31:48.501Z,30.29
2018-06-29T12:34:16.906Z,29.26
2018-06-29T12:36:45.425Z,29.88
2018-06-29T12:39:14.733Z,29.60
2018-06-29T12:41:43.497Z,30.02
2018-06-29T12:44:12.020Z,30.30
2018-06-29T12:46:40.662Z,30.34
2018-06-29T12:49:09.097Z,29.97
2018-06-29T12:51:37.701Z,29.17
2018-06-29T12:54:06.969Z,28.56
2018-06-29T12:56:35.600Z,29.34
2018-06-29T12:59:04.090Z,29.61
2018-06-29T13:01:32.930Z,29.85
2018-06-29T13:04:01.607Z,29.36
2018-06-29T13:06:30.183Z,29.39
2018-06-29T13:08:59.249Z,29.19
2018-06-29T13:11:28.654Z,28.75
2018-06-29T13:13:57.090Z,28.30
2018-06-29T13:16:25.849Z,27.22
2018-06-29T13:18:54.628Z,27.11
2018-06-29T13:21:23.105Z,26.18
2018-06-29T13:23:52.003Z,26.29
2018-06-29T13:26:21.138Z,26.57
2018-06-29T13:28:49.653Z,26.55
2018-06-29T13:31:18.252Z,26.53
2018-06-29T13:33:47.113Z,27.15
2018-06-29T13:36:15.599Z,27.44
2018-06-29T13:38:44.333Z,28.26
2018-06-29T13:41:13.010Z,27.93
2018-06-29T13:43:41.453Z,28.80
2018-06-29T13:46:10.139Z,28.62
2018-06-29T13:48:38.668Z,28.61
2018-06-29T13:51:07.161Z,28.69
2018-06-29T13:53:35.685Z,27.97
2018-06-29T13:56:04.330Z,27.27
2018-06-29T13:58:32.829Z,26.40
2018-06-29T14:01:01.394Z,25.51
2018-06-29T14:03:30.057Z,25.46
2018-06-29T14:05:58.501Z,25.64
2018-06-29T14:08:27.145Z,25.38
2018-06-29T14:10:55.826Z,26.38
2018-06-29T14:13:24.255Z,26.86
2018-06-29T14:15:53.182Z,27.26
2018-06-29T14:18:21.985Z,27.33
2018-06-29T14:20:50.709Z,28.40
2018-06-29T14:23:19.265Z,29.15
2018-06-29T14:25:47.773Z,28.49
2018-06-29T14:28:16.427Z,27.51
2018-06-29T14:30:45.196Z,26.47
2018-06-29T14:33:14.031Z,27.15
2018-06-29T14:35:42.533Z,27.55
2018-06-29T14:38:11.358Z,28.33
2018-06-29T14:40:39.787Z,29.10
2018-06-29T14:43:08.539Z,29.50
2018-06-29T14:45:37.048Z,29.49
2018-06-29T14:48:06.014Z,28.23
2018-06-29T14:50:35.243Z,27.50
2018-06-29T14:53:03.753Z,27.87
2018-06-29T14:55:32.570Z,28.57
2018-06-29T14:58:01.878Z,29.12
2018-06-29T15:00:31.962Z,29.39
2018-06-29T15:03:01.349Z,29.41
2018-06-29T15:05:30.081Z,29.79
2018-06-29T15:07:58.714Z,28.50
2018-06-29T15:10:27.215Z,27.76
2018-06-29T15:12:55.650Z,26.92
2018-06-29T15:15:24.132Z,25.59
2018-06-29T15:17:52.770Z,24.30
2018-06-29T15:20:21.332Z,23.06
2018-06-29T15:22:50.055Z,23.34
2018-06-29T15:25:18.600Z,23.96
2018-06-29T15:27:47.069Z,24.66
2018-06-29T15:30:15.731Z,26.01
2018-06-29T15:32:44.242Z,26.34
2018-06-29T15:35:12.929Z,26.10
2018-06-29T15:37:41.433Z,24.30
2018-06-29T15:40:10.031Z,23.92
2018-06-29T15:42:38.997Z,24.13
2018-06-29T15:45:07.781Z,23.67
2018-06-29T15:47:36.310Z,23.65
2018-06-29T15:50:05.221Z,25.18
2018-06-29T15:52:33.949Z,25.81
2018-06-29T15:55:02.454Z,25.40
2018-06-29T15:57:31.933Z,26.36
2018-06-29T16:00:01.162Z,26.80
2018-06-29T16:02:29.617Z,26.34
2018-06-29T16:04:58.085Z,25.78
2018-06-29T16:07:26.641Z,24.68
2018-06-29T16:09:55.439Z,25.46
2018-06-29T16:12:23.940Z,25.43
2018-06-29T16:14:52.393Z,26.28
2018-06-29T16:17:20.904Z,27.14
2018-06-29T16:19:49.861Z,27.51
2018-06-29T16:22:18.346Z,28.96
2018-06-29T16:24:46.813Z,28.57
2018-06-29T16:27:15.301Z,28.47
2018-06-29T16:29:44.229Z,28.80
2018-06-29T16:32:12.837Z,29.13
2018-06-29T16:34:41.281Z,28.01
2018-06-29T16:37:09.763Z,28.38
2018-06-29T16:39:38.222Z,28.13
2018-06-29T16:42:06.698Z,29.87
2018-06-29T16:44:35.212Z,29.02
2018-06-29T16:47:04.208Z,28.63
2018-06-29T16:49:32.678Z,28.02
2018-06-29T16:52:01.971Z,29.67
2018-06-29T16:54:31.078Z,30.52
2018-06-29T16:56:59.769Z,30.29
2018-06-29T16:59:28.397Z,31.10
2018-06-29T17:01:57.016Z,30.98
2018-06-29T17:04:25.877Z,31.74
2018-06-29T17:06:54.346Z,32.03
2018-06-29T17:09:22.983Z,32.25
2018-06-29T17:11:51.606Z,32.77
2018-06-29T17:14:20.281Z,32.93
2018-06-29T17:16:48.802Z,33.77
2018-06-29T17:19:24.135Z,33.76
2018-06-29T17:21:53.041Z,34.12
2018-06-29T17:24:21.482Z,34.09
2018-06-29T17:26:50.311Z,33.64
2018-06-29T17:29:18.787Z,33.68
2018-06-29T17:31:47.237Z,33.78
2018-06-29T17:34:16.110Z,33.86
2018-06-29T17:36:44.662Z,34.25
2018-06-29T17:39:13.101Z,34.51
2018-06-29T17:41:41.809Z,34.59
2018-06-29T17:44:10.349Z,34.89
2018-06-29T17:46:39.055Z,35.01
2018-06-29T17:49:07.961Z,35.73
2018-06-29T17:51:36.510Z,35.50
2018-06-29T17:54:05.035Z,35.43
2018-06-29T17:56:33.844Z,35.70
2018-06-29T17:59:02.397Z,36.39
2018-06-29T18:01:30.817Z,36.34
2018-06-29T18:03:59.670Z,36.59
2018-06-29T18:06:28.237Z,36.96
2018-06-29T18:08:56.713Z,36.53
2018-06-29T18:11:25.358Z,36.14
2018-06-29T18:13:53.994Z,36.11
2018-06-29T18:16:22.445Z,35.45
2018-06-29T18:18:51.295Z,35.36
2018-06-29T18:21:19.825Z,35.33
2018-06-29T18:23:48.241Z,35.23
2018-06-29T18:26:16.866Z,35.51
2018-06-29T18:28:45.509Z,35.70
2018-06-29T18:31:14.033Z,35.92
2018-06-29T18:33:43.306Z,36.02
2018-06-29T18:36:12.403Z,35.50
2018-06-29T18:38:40.825Z,35.99
2018-06-29T18:41:09.401Z,36.08
2018-06-29T18:43:37.909Z,35.64
2018-06-29T18:46:06.515Z,35.40
2018-06-29T18:48:35.238Z,35.70
2018-06-29T18:51:04.042Z,36.04
2018-06-29T18:53:32.571Z,36.08
2018-06-29T18:56:02.126Z,36.18
2018-06-29T18:58:30.597Z,35.83
2018-06-29T19:00:59.337Z,35.60
2018-06-29T19:03:28.061Z,36.21
2018-06-29T19:05:56.761Z,36.62
2018-06-29T19:08:25.317Z,36.47
2018-06-29T19:10:53.877Z,36.35
2018-06-29T19:13:22.417Z,36.56
2018-06-29T19:15:51.001Z,36.63
2018-06-29T19:18:19.554Z,36.72
2018-06-29T19:20:47.989Z,36.25
2018-06-29T19:23:16.609Z,36.50
2018-06-29T19:25:45.394Z,36.69
2018-06-29T19:28:13.872Z,36.83
2018-06-29T19:30:42.400Z,36.71
2018-06-29T19:33:11.220Z,37.19
2018-06-29T19:35:39.871Z,37.11
2018-06-29T19:38:08.683Z,36.94
2018-06-29T19:40:37.626Z,36.88
2018-06-29T19:43:06.093Z,37.39
2018-06-29T19:45:34.932Z,36.98
2018-06-29T19:48:03.681Z,37.33
2018-06-29T19:50:32.126Z,37.17
2018-06-29T19:53:01.796Z,37.33
2018-06-29T19:55:30.854Z,37.17
2018-06-29T19:57:59.573Z,37.46
2018-06-29T20:00:29.045Z,37.82
2018-06-29T20:02:57.586Z,38.04
2018-06-29T20:05:26.097Z,37.94
2018-06-29T20:07:54.901Z,37.79
2018-06-29T20:10:23.699Z,37.81
2018-06-29T20:12:52.409Z,38.13
2018-06-29T20:15:21.032Z,38.13
2018-06-29T20:17:49.729Z,38.23
2018-06-29T20:20:18.268Z,38.33
2018-06-29T20:22:49.811Z,38.71
2018-06-29T20:25:18.405Z,38.22
2018-06-29T20:27:47.014Z,38.51
2018-06-29T20:30:15.486Z,38.07
2018-06-29T20:32:43.993Z,38.28
2018-06-29T20:35:12.427Z,38.65
2018-06-29T20:37:40.858Z,38.49
2018-06-29T20:40:10.299Z,38.73
2018-06-29T20:42:39.016Z,39.00
2018-06-29T20:45:08.069Z,39.18
2018-06-29T20:47:36.498Z,39.14
2018-06-29T20:50:05.930Z,38.65
2018-06-29T20:52:34.809Z,38.97
2018-06-29T20:55:03.436Z,38.63
2018-06-29T20:57:31.897Z,39.25
2018-06-29T21:00:00.357Z,39.13
2018-06-29T21:02:28.969Z,39.27
2018-06-29T21:04:57.462Z,39.17
2018-06-29T21:07:25.949Z,39.05
2018-06-29T21:09:54.510Z,39.30
2018-06-29T21:12:23.630Z,39.38
2018-06-29T21:14:52.178Z,39.19
2018-06-29T21:17:21.009Z,39.60
2018-06-29T21:19:49.723Z,39.41
2018-06-29T21:22:18.181Z,39.68
2018-06-29T21:24:46.593Z,39.63
2018-06-29T21:27:15.727Z,40.10
2018-06-29T21:29:44.688Z,39.64
2018-06-29T21:32:13.293Z,40.37
2018-06-29T21:34:41.838Z,40.08
2018-06-29T21:37:10.344Z,40.26
2018-06-29T21:39:39.082Z,40.76
2018-06-29T21:42:08.102Z,40.79
2018-06-29T21:44:36.556Z,40.74
2018-06-29T21:47:05.309Z,40.58
2018-06-29T21:49:33.741Z,40.26
2018-06-29T21:52:02.202Z,40.83
2018-06-29T21:54:31.258Z,40.72
2018-06-29T21:57:00.281Z,40.85
2018-06-29T21:59:28.793Z,40.57
2018-06-29T22:01:57.417Z,40.56
2018-06-29T22:04:25.930Z,40.62
2018-06-29T22:06:54.436Z,40.73
2018-06-29T22:09:22.988Z,40.83
2018-06-29T22:11:51.602Z,40.90
2018-06-29T22:14:20.094Z,41.27
2018-06-29T22:16:49.097Z,41.42
2018-06-29T22:19:17.541Z,41.29
2018-06-29T22:21:46.024Z,41.80
2018-06-29T22:24:14.826Z,41.71
2018-06-29T22:26:43.246Z,41.39
2018-06-29T22:29:11.721Z,41.61
2018-06-29T22:31:40.382Z,42.08
2018-06-29T22:34:08.821Z,42.05
2018-06-29T22:36:37.369Z,42.22
2018-06-29T22:39:08.941Z,42.31
2018-06-29T22:41:37.470Z,42.07
2018-06-29T22:44:06.397Z,42.39
2018-06-29T22:46:34.873Z,42.42
2018-06-29T22:49:03.341Z,42.35
2018-06-29T22:51:32.056Z,42.71
2018-06-29T22:54:01.281Z,43.13
2018-06-29T22:56:29.942Z,42.88
2018-06-29T22:58:58.625Z,43.07
2018-06-29T23:01:27.341Z,43.49
2018-06-29T23:03:56.366Z,43.65
2018-06-29T23:06:26.026Z,43.45
2018-06-29T23:08:54.589Z,43.52
2018-06-29T23:11:23.089Z,44.03
2018-06-29T23:13:51.538Z,44.32
2018-06-29T23:16:20.315Z,44.02
2018-06-29T23:18:48.781Z,44.17
2018-06-29T23:21:17.285Z,44.62
2018-06-29T23:23:46.021Z,44.92
2018-06-29T23:26:14.493Z,44.96
2018-06-29T23:28:43.204Z,45.19
2018-06-29T23:31:11.641Z,44.81
2018-06-29T23:33:40.125Z,45.27
2018-06-29T23:36:09.273Z,45.46
2018-06-29T23:38:37.847Z,45.61
2018-06-29T23:41:06.558Z,45.30
2018-06-29T23:43:35.790Z,45.53
2018-06-29T23:46:04.430Z,45.62
2018-06-29T23:48:33.365Z,46.06
2018-06-29T23:51:01.781Z,45.99
2018-06-29T23:53:30.341Z,46.12
2018-06-29T23:55:58.873Z,45.89
2018-06-29T23:58:27.290Z,46.29
